Polar Endurance — WDG2085 — position and weather

sailwx.info

Track history (hours):
 
Tides and Currents Weather Stations Pressure Air Temp Water Temp Dewpoint Dewpoint Depression Visibility Wind Speed Wind Dir Waves Ship Positions

Polar Endurance

Owner: Dunlap Towing Co., LaConner, WA. More information available from US FCC via Universal Licensing System and Coast Guard Vessel Documentation Center.

Last reported at 2014-Oct-22 09:33 UTC. Time now 2014-Oct-22 09:40 UTC.
Position N 47°56' W 122°33'.

Length 37 m.

Type: Tow > 200 m length. MMSI: 303144000.

Date/timePositionNaut miles runAvg speedWind from/ knotsBaromVisibWave heightAir tempDewpointWater temp
2014-Oct-22 09:33N 47°56' W 122°33'0 9.9
2014-Oct-22 09:31N 47°56' W 122°33'9 8.7
2014-Oct-22 08:32N 48°04' W 122°40'20 6.7
2014-Oct-22 05:33N 48°12' W 123°07'8 7.8
2014-Oct-22 04:33N 48°12' W 123°19'8 7.9
2014-Oct-22 03:32N 48°12' W 123°31'8 7.9
2014-Oct-22 02:33N 48°12' W 123°43'7 7.2
2014-Oct-22 01:33N 48°12' W 123°53'9 8.9
2014-Oct-22 00:33N 48°15' W 124°06'7 7.0
2014-Oct-21 23:33N 48°19' W 124°15'8 8.2
2014-Oct-21 22:33N 48°22' W 124°26'8 8.5
2014-Oct-21 21:33N 48°26' W 124°38'8 8.2
2014-Oct-21 20:32N 48°27' W 124°50'137 8.0
2014-Oct-21 03:33N 46°13' W 124°12'5 5.3
2014-Oct-21 02:33N 46°15' W 124°05'3 7.4
2014-Oct-21 02:09N 46°15' W 124°01'5 9.3
2014-Oct-21 01:33N 46°12' W 123°55'9 9.4
2014-Oct-21 00:34N 46°15' W 123°42'9 8.6
2014-Oct-20 23:29N 46°16' W 123°29'19 6.6
2014-Oct-20 20:34N 46°09' W 123°03'5 7.7
2014-Oct-20 19:58N 46°06' W 122°58'17 1.0
2014-Oct-20 03:31N 46°09' W 123°22'9 9.0
2014-Oct-20 02:34N 46°16' W 123°29'1010.2
2014-Oct-20 01:33N 46°14' W 123°43'8 8.3
2014-Oct-20 00:34N 46°12' W 123°55'7 7.4
2014-Oct-19 23:33N 46°15' W 124°04'128 8.0
2014-Oct-19 07:33N 48°19' W 124°52'9 8.9
2014-Oct-19 06:33N 48°26' W 124°43'1211.6
2014-Oct-19 05:33N 48°21' W 124°26'1010.4
2014-Oct-19 04:33N 48°17' W 124°12'1111.0
2014-Oct-19 03:31N 48°12' W 123°57'1111.8
2014-Oct-19 02:33N 48°11' W 123°40'412.0
2014-Oct-19 02:14N 48°11' W 123°34'812.4
2014-Oct-19 01:33N 48°11' W 123°21'112.8
2014-Oct-19 01:29N 48°11' W 123°20'1212.4
2014-Oct-19 00:32N 48°12' W 123°02'1112.6
2014-Oct-18 23:39N 48°11' W 122°46'1512.8
2014-Oct-18 22:29N 47°58' W 122°34'412.4
2014-Oct-18 22:09N 47°56' W 122°29'5 8.8
2014-Oct-18 21:33N 47°55' W 122°22'7 7.1
2014-Oct-18 20:33N 47°59' W 122°13'0 0.0
2014-Oct-18 19:33N 47°59' W 122°13'  
Track history (hours):
 
Tides and Currents Weather Stations Pressure Air Temp Water Temp Dewpoint Dewpoint Depression Visibility Wind Speed Wind Dir Waves Ship Positions

Polar Endurance

Owner: Dunlap Towing Co., LaConner, WA. More information available from US FCC via Universal Licensing System and Coast Guard Vessel Documentation Center.

Last reported at 2014-Oct-22 09:33 UTC. Time now 2014-Oct-22 09:40 UTC.
Position N 47°56' W 122°33'.

Length 37 m.

Type: Tow > 200 m length. MMSI: 303144000.

Date/timePositionNaut miles runAvg speedWind from/ knotsBaromVisibWave heightAir tempDewpointWater temp
2014-Oct-22 09:33N 47°56' W 122°33'0 9.9
2014-Oct-22 09:31N 47°56' W 122°33'9 8.7
2014-Oct-22 08:32N 48°04' W 122°40'20 6.7
2014-Oct-22 05:33N 48°12' W 123°07'8 7.8
2014-Oct-22 04:33N 48°12' W 123°19'8 7.9
2014-Oct-22 03:32N 48°12' W 123°31'8 7.9
2014-Oct-22 02:33N 48°12' W 123°43'7 7.2
2014-Oct-22 01:33N 48°12' W 123°53'9 8.9
2014-Oct-22 00:33N 48°15' W 124°06'7 7.0
2014-Oct-21 23:33N 48°19' W 124°15'8 8.2
2014-Oct-21 22:33N 48°22' W 124°26'8 8.5
2014-Oct-21 21:33N 48°26' W 124°38'8 8.2
2014-Oct-21 20:32N 48°27' W 124°50'137 8.0
2014-Oct-21 03:33N 46°13' W 124°12'5 5.3
2014-Oct-21 02:33N 46°15' W 124°05'3 7.4
2014-Oct-21 02:09N 46°15' W 124°01'5 9.3
2014-Oct-21 01:33N 46°12' W 123°55'9 9.4
2014-Oct-21 00:34N 46°15' W 123°42'9 8.6
2014-Oct-20 23:29N 46°16' W 123°29'19 6.6
2014-Oct-20 20:34N 46°09' W 123°03'5 7.7
2014-Oct-20 19:58N 46°06' W 122°58'17 1.0
2014-Oct-20 03:31N 46°09' W 123°22'9 9.0
2014-Oct-20 02:34N 46°16' W 123°29'1010.2
2014-Oct-20 01:33N 46°14' W 123°43'8 8.3
2014-Oct-20 00:34N 46°12' W 123°55'7 7.4
2014-Oct-19 23:33N 46°15' W 124°04'128 8.0
2014-Oct-19 07:33N 48°19' W 124°52'9 8.9
2014-Oct-19 06:33N 48°26' W 124°43'1211.6
2014-Oct-19 05:33N 48°21' W 124°26'1010.4
2014-Oct-19 04:33N 48°17' W 124°12'1111.0
2014-Oct-19 03:31N 48°12' W 123°57'1111.8
2014-Oct-19 02:33N 48°11' W 123°40'412.0
2014-Oct-19 02:14N 48°11' W 123°34'812.4
2014-Oct-19 01:33N 48°11' W 123°21'112.8
2014-Oct-19 01:29N 48°11' W 123°20'1212.4
2014-Oct-19 00:32N 48°12' W 123°02'1112.6
2014-Oct-18 23:39N 48°11' W 122°46'1512.8
2014-Oct-18 22:29N 47°58' W 122°34'412.4
2014-Oct-18 22:09N 47°56' W 122°29'5 8.8
2014-Oct-18 21:33N 47°55' W 122°22'7 7.1
2014-Oct-18 20:33N 47°59' W 122°13'0 0.0
2014-Oct-18 19:33N 47°59' W 122°13'  

Dump ship's entire track history